createdAt,value
2023-04-21T03:31:37.350Z,16.13
2023-04-21T03:42:27.230Z,16.75
2023-04-21T03:53:05.678Z,13.95
2023-04-21T04:03:41.571Z,14.82
2023-04-21T04:14:17.605Z,13.43
2023-04-21T04:24:53.339Z,12.55
2023-04-21T04:35:29.357Z,13.80
2023-04-21T04:46:05.904Z,11.98
2023-04-21T04:56:41.271Z,18.30
2023-04-21T05:07:16.425Z,18.42
2023-04-21T05:17:33.417Z,14.00
2023-04-21T05:27:48.748Z,12.10
2023-04-21T05:38:04.176Z,11.80
2023-04-21T05:48:19.749Z,10.65
2023-04-21T05:58:35.979Z,9.40
2023-04-21T06:08:51.111Z,8.88
2023-04-21T06:19:06.457Z,8.65
2023-04-21T06:29:21.909Z,9.10
2023-04-21T06:39:37.172Z,19.67
2023-04-21T06:49:52.620Z,20.33
2023-04-21T07:00:08.645Z,17.05
2023-04-21T07:10:24.234Z,16.65
2023-04-21T07:20:39.510Z,16.80
2023-04-21T07:30:54.831Z,17.65
2023-04-21T07:41:14.166Z,21.27
2023-04-21T07:51:29.638Z,21.95
2023-04-21T08:01:44.952Z,19.45
2023-04-21T08:12:00.018Z,18.42
2023-04-21T08:22:15.701Z,19.23
2023-04-21T08:32:31.035Z,16.35
2023-04-21T08:42:48.641Z,14.32
2023-04-21T08:53:04.389Z,12.88
2023-04-21T09:03:26.211Z,15.60
2023-04-21T09:13:43.939Z,16.33
2023-04-21T09:24:05.675Z,14.75
2023-04-21T09:34:24.698Z,14.18
2023-04-21T09:44:51.897Z,13.43
2023-04-21T09:55:12.942Z,12.93
2023-04-21T10:05:29.044Z,11.65
2023-04-21T10:15:44.305Z,12.07
2023-04-21T10:26:06.676Z,10.55
2023-04-21T10:36:25.186Z,11.20
2023-04-21T10:46:48.378Z,14.98
2023-04-21T10:57:08.035Z,14.07
2023-04-21T11:07:24.426Z,17.10
2023-04-21T11:17:39.912Z,17.45
2023-04-21T11:27:57.039Z,15.55
2023-04-21T11:38:14.781Z,14.55
2023-04-21T11:48:30.196Z,17.93
2023-04-21T11:58:46.443Z,12.60
2023-04-21T12:09:02.881Z,15.80
2023-04-21T12:19:34.731Z,16.58
2023-04-21T12:29:50.050Z,14.90
2023-04-21T12:40:07.016Z,16.85
2023-04-21T12:50:22.386Z,15.82
2023-04-21T13:00:38.159Z,16.10
2023-04-21T13:10:55.126Z,13.23
2023-04-21T13:21:10.845Z,16.20
2023-04-21T13:31:26.508Z,13.35
2023-04-21T13:41:42.100Z,15.45
2023-04-21T13:51:57.480Z,14.15
2023-04-21T14:02:12.978Z,10.48
2023-04-21T14:12:28.277Z,10.10
2023-04-21T14:22:43.761Z,12.10
2023-04-21T14:32:59.119Z,7.50
2023-04-21T14:43:14.504Z,8.75
2023-04-21T14:53:29.784Z,6.97
2023-04-21T15:03:45.233Z,6.53
2023-04-21T15:14:00.504Z,5.28
2023-04-21T15:24:15.860Z,6.55
2023-04-21T15:34:31.336Z,5.65
2023-04-21T15:44:47.079Z,6.18
2023-04-21T15:55:02.563Z,4.97
2023-04-21T16:05:19.934Z,5.30
2023-04-21T16:15:35.296Z,5.37
2023-04-21T16:25:50.856Z,4.43
2023-04-21T16:36:06.572Z,5.22
2023-04-21T16:46:22.000Z,5.00
2023-04-21T16:56:37.849Z,7.15
2023-04-21T17:06:52.955Z,3.92
2023-04-21T17:17:08.928Z,11.20
2023-04-21T17:27:25.567Z,3.63
2023-04-21T17:37:40.906Z,6.07
2023-04-21T17:47:56.149Z,1.95
2023-04-21T17:58:12.613Z,2.45
2023-04-21T18:08:28.339Z,3.17
2023-04-21T18:18:43.603Z,1.10
2023-04-21T18:28:58.998Z,1.60
2023-04-21T18:39:16.473Z,4.88
2023-04-21T18:49:32.347Z,4.53
2023-04-21T18:59:48.145Z,1.20
2023-04-21T19:10:04.095Z,9.38
2023-04-21T19:20:20.725Z,3.88
2023-04-21T19:30:36.050Z,6.80
2023-04-21T19:40:51.486Z,4.95
2023-04-21T19:51:27.821Z,2.38
2023-04-21T20:02:03.378Z,4.05
2023-04-21T20:12:38.957Z,26.45
2023-04-21T20:23:16.048Z,6.18
2023-04-21T20:33:51.491Z,2.38
2023-04-21T20:44:31.383Z,3.53
2023-04-21T20:55:07.322Z,3.83
2023-04-21T21:05:43.028Z,6.95
2023-04-21T21:16:18.593Z,4.50
2023-04-21T21:26:54.420Z,3.10
